createdAt,value
2022-11-25T00:04:23.365Z,4.19
2022-11-25T00:09:27.631Z,4.20
2022-11-25T00:14:31.662Z,4.42
2022-11-25T00:19:37.388Z,4.50
2022-11-25T00:24:41.628Z,4.58
2022-11-25T00:29:46.018Z,4.67
2022-11-25T00:34:51.630Z,4.81
2022-11-25T00:39:56.056Z,4.85
2022-11-25T00:45:00.086Z,4.61
2022-11-25T00:50:06.738Z,4.29
2022-11-25T00:55:11.007Z,4.22
2022-11-25T01:00:15.797Z,4.14
2022-11-25T01:05:21.834Z,4.17
2022-11-25T01:10:27.790Z,4.20
2022-11-25T01:15:31.793Z,4.01
2022-11-25T01:20:37.191Z,3.98
2022-11-25T01:25:41.715Z,3.99
2022-11-25T01:30:45.751Z,3.92
2022-11-25T01:35:52.281Z,3.94
2022-11-25T01:40:56.268Z,3.98
2022-11-25T01:46:07.112Z,3.94
2022-11-25T01:51:21.308Z,3.94
2022-11-25T01:56:26.762Z,3.84
2022-11-25T02:01:30.809Z,3.95
2022-11-25T02:06:42.110Z,3.85
2022-11-25T02:11:47.151Z,3.71
2022-11-25T02:16:51.307Z,3.64
2022-11-25T02:22:04.500Z,3.63
2022-11-25T02:27:10.403Z,3.60
2022-11-25T02:32:14.657Z,3.48
2022-11-25T02:37:22.681Z,3.47
2022-11-25T02:42:29.779Z,3.51
2022-11-25T02:47:35.084Z,3.50
2022-11-25T02:52:39.669Z,3.55
2022-11-25T02:57:45.085Z,3.56
2022-11-25T03:02:49.759Z,3.50
2022-11-25T03:07:53.867Z,3.48
2022-11-25T03:13:00.496Z,3.60
2022-11-25T03:18:05.343Z,3.50
2022-11-25T03:23:10.305Z,3.40
2022-11-25T03:28:15.890Z,3.36
2022-11-25T03:33:20.677Z,3.40
2022-11-25T03:38:24.877Z,3.41
2022-11-25T03:43:31.592Z,3.50
2022-11-25T03:48:35.753Z,3.50
2022-11-25T03:53:40.100Z,3.38
2022-11-25T03:58:47.721Z,3.58
2022-11-25T04:03:54.736Z,3.59
2022-11-25T04:08:58.924Z,3.51
2022-11-25T04:14:04.995Z,3.72
2022-11-25T04:19:10.137Z,3.76
2022-11-25T04:24:15.755Z,3.89
2022-11-25T04:29:22.830Z,3.87
2022-11-25T04:34:27.139Z,4.04
2022-11-25T04:39:31.912Z,3.86
2022-11-25T04:44:42.177Z,4.03
2022-11-25T04:49:46.538Z,4.03
2022-11-25T04:54:51.663Z,4.34
2022-11-25T04:59:58.243Z,4.05
2022-11-25T05:05:03.276Z,4.00
2022-11-25T05:10:09.068Z,3.86
2022-11-25T05:15:19.694Z,3.90
2022-11-25T05:20:26.459Z,3.82
2022-11-25T05:25:30.687Z,3.67
2022-11-25T05:30:54.482Z,3.63
2022-11-25T05:36:00.640Z,3.53
2022-11-25T05:41:12.335Z,3.56
2022-11-25T05:46:19.915Z,4.09
2022-11-25T05:51:29.466Z,3.89
2022-11-25T05:56:34.572Z,3.65
2022-11-25T06:02:06.368Z,3.44
2022-11-25T06:07:10.753Z,3.63
2022-11-25T06:12:16.554Z,3.95
2022-11-25T06:17:27.282Z,3.69
2022-11-25T06:22:44.085Z,3.61
2022-11-25T06:28:11.788Z,3.55
2022-11-25T06:33:16.991Z,3.85
2022-11-25T06:38:24.534Z,3.88
2022-11-25T06:43:29.741Z,4.05
2022-11-25T06:48:35.550Z,4.36
2022-11-25T06:53:40.976Z,4.53
2022-11-25T06:58:46.000Z,4.62
2022-11-25T07:03:54.221Z,4.66
2022-11-25T07:08:58.698Z,5.28
2022-11-25T07:14:11.736Z,5.49
2022-11-25T07:19:19.256Z,5.75
2022-11-25T07:24:23.475Z,5.79
2022-11-25T07:34:53.844Z,6.54
2022-11-25T07:40:00.235Z,7.21
2022-11-25T07:45:04.875Z,7.32
2022-11-25T07:50:25.331Z,6.73
2022-11-25T07:55:30.788Z,6.55
2022-11-25T08:00:35.188Z,6.63
2022-11-25T08:05:42.847Z,6.69
2022-11-25T08:10:46.903Z,6.76
2022-11-25T08:15:50.964Z,7.27
2022-11-25T08:21:00.162Z,6.88
2022-11-25T08:26:05.387Z,6.59
2022-11-25T08:31:11.706Z,7.09
2022-11-25T08:36:18.360Z,8.84
2022-11-25T08:41:25.814Z,9.46
2022-11-25T08:46:33.445Z,10.57
2022-11-25T08:51:40.184Z,11.74
2022-11-25T08:56:44.646Z,11.76
2022-11-25T09:01:49.716Z,11.83
2022-11-25T09:06:55.423Z,12.38
2022-11-25T09:12:00.489Z,12.10
2022-11-25T09:17:09.009Z,12.85
2022-11-25T09:22:14.866Z,12.70
2022-11-25T09:27:18.939Z,13.42
2022-11-25T09:32:23.299Z,15.14
2022-11-25T09:37:29.066Z,14.73
2022-11-25T09:43:05.827Z,15.53
2022-11-25T09:48:35.692Z,17.23
2022-11-25T09:53:44.208Z,17.47
2022-11-25T09:58:53.641Z,16.66
2022-11-25T10:04:03.383Z,14.18
2022-11-25T10:09:14.664Z,13.44
2022-11-25T10:14:28.274Z,12.65
2022-11-25T10:19:44.879Z,11.76
2022-11-25T10:24:52.425Z,11.00
2022-11-25T10:30:06.007Z,10.28
2022-11-25T10:35:20.684Z,10.08
2022-11-25T10:40:26.123Z,11.39
2022-11-25T10:45:34.694Z,10.68
2022-11-25T10:50:51.918Z,10.15
2022-11-25T10:56:03.632Z,10.52
2022-11-25T11:01:15.528Z,10.48
2022-11-25T11:06:39.039Z,10.25
2022-11-25T11:11:50.348Z,10.43
2022-11-25T11:16:56.312Z,10.57
2022-11-25T11:22:17.768Z,11.94
2022-11-25T11:27:25.896Z,11.35
2022-11-25T11:32:30.514Z,11.56
2022-11-25T11:37:42.781Z,11.18
2022-11-25T11:43:02.127Z,10.50
2022-11-25T11:48:18.780Z,10.47
2022-11-25T11:53:31.671Z,10.32
2022-11-25T11:59:00.659Z,10.15
2022-11-25T12:04:19.052Z,10.25
2022-11-25T12:09:27.073Z,9.59
2022-11-25T12:14:41.084Z,9.67
2022-11-25T12:19:53.617Z,9.64
2022-11-25T12:25:08.896Z,9.04
2022-11-25T12:30:17.525Z,8.68
2022-11-25T12:35:35.106Z,9.21
2022-11-25T12:40:45.851Z,9.95
2022-11-25T12:46:03.061Z,9.53
2022-11-25T12:51:17.907Z,9.10
2022-11-25T12:56:28.901Z,8.73
2022-11-25T13:01:58.311Z,8.48
2022-11-25T13:07:30.460Z,9.01
2022-11-25T13:12:45.392Z,8.90
2022-11-25T13:17:56.323Z,8.67
2022-11-25T13:23:04.472Z,8.44
2022-11-25T13:28:30.458Z,7.74
2022-11-25T13:34:02.139Z,7.62
2022-11-25T13:39:14.463Z,7.53
2022-11-25T13:44:32.024Z,7.33
2022-11-25T13:49:51.967Z,7.18
2022-11-25T13:54:58.372Z,7.06
2022-11-25T14:00:07.305Z,7.08
2022-11-25T14:05:38.359Z,7.15
2022-11-25T14:10:47.418Z,7.18
2022-11-25T14:16:08.016Z,7.29
2022-11-25T14:21:30.925Z,7.35
2022-11-25T14:26:49.895Z,7.19
2022-11-25T14:32:01.326Z,7.17
2022-11-25T14:37:14.552Z,6.95
2022-11-25T14:42:23.595Z,6.73
2022-11-25T14:47:33.283Z,6.59
2022-11-25T14:52:43.942Z,6.57
2022-11-25T14:57:48.106Z,6.71
2022-11-25T15:02:56.895Z,6.58
2022-11-25T15:08:05.070Z,6.59
2022-11-25T15:13:16.198Z,6.70
2022-11-25T15:18:23.254Z,6.67
2022-11-25T15:23:36.825Z,6.55
2022-11-25T15:28:42.020Z,6.61
2022-11-25T15:33:47.140Z,6.51
2022-11-25T15:38:53.921Z,6.41
2022-11-25T15:44:02.358Z,6.36
2022-11-25T15:49:16.765Z,6.59
2022-11-25T15:54:25.960Z,6.16
2022-11-25T15:59:51.277Z,6.30
2022-11-25T16:05:15.513Z,6.13
2022-11-25T16:10:23.465Z,6.22
2022-11-25T16:15:46.429Z,6.41
2022-11-25T16:20:53.468Z,6.60
2022-11-25T16:26:02.437Z,6.72
2022-11-25T16:31:06.916Z,6.56
2022-11-25T16:36:11.174Z,6.56
2022-11-25T16:41:25.653Z,6.37
2022-11-25T16:46:29.838Z,6.34
2022-11-25T16:51:33.961Z,6.33
2022-11-25T16:56:43.231Z,6.54
2022-11-25T17:01:47.885Z,6.51
2022-11-25T17:07:24.363Z,6.27
2022-11-25T17:12:27.099Z,6.71
2022-11-25T17:17:31.383Z,6.49
2022-11-25T17:22:39.578Z,6.52
2022-11-25T17:27:49.112Z,6.49
2022-11-25T17:32:58.480Z,6.59
2022-11-25T17:38:02.209Z,6.50
2022-11-25T17:43:08.468Z,6.45
2022-11-25T17:48:14.357Z,6.15
2022-11-25T17:53:18.344Z,6.28
2022-11-25T17:58:26.438Z,6.35
2022-11-25T18:03:30.557Z,6.16
2022-11-25T18:08:36.050Z,6.12
2022-11-25T18:13:42.749Z,6.11
2022-11-25T18:18:49.165Z,6.14
2022-11-25T18:23:53.748Z,6.20
2022-11-25T18:29:00.199Z,5.98
2022-11-25T18:34:04.149Z,5.89
2022-11-25T18:39:08.067Z,5.75
2022-11-25T18:44:25.911Z,5.91
2022-11-25T18:49:30.615Z,5.84
2022-11-25T18:54:35.485Z,5.81
2022-11-25T18:59:43.690Z,5.98
2022-11-25T19:04:48.092Z,6.18
2022-11-25T19:09:52.655Z,6.09
2022-11-25T19:14:59.003Z,5.27
2022-11-25T19:20:03.974Z,5.29
2022-11-25T19:25:09.500Z,5.34
2022-11-25T19:30:38.044Z,5.13
2022-11-25T19:35:42.463Z,5.68
2022-11-25T19:40:49.816Z,5.57
2022-11-25T19:46:06.221Z,5.59
2022-11-25T19:51:13.457Z,5.61
2022-11-25T19:56:24.186Z,5.60
2022-11-25T20:01:57.304Z,5.54
2022-11-25T20:07:07.133Z,5.61
2022-11-25T20:12:22.177Z,5.39
2022-11-25T20:17:29.868Z,5.21
2022-11-25T20:22:37.775Z,5.16
2022-11-25T20:27:43.575Z,4.74
2022-11-25T20:32:49.357Z,5.02
2022-11-25T20:37:58.224Z,4.85
2022-11-25T20:43:02.914Z,5.06
2022-11-25T20:48:12.736Z,4.72
2022-11-25T20:53:18.316Z,4.65
2022-11-25T20:58:24.427Z,4.56
2022-11-25T21:03:30.057Z,4.24
2022-11-25T21:08:34.061Z,4.03
2022-11-25T21:13:38.001Z,4.19
2022-11-25T21:18:44.178Z,3.92
2022-11-25T21:23:49.697Z,4.04
2022-11-25T21:28:56.074Z,4.08
2022-11-25T21:34:02.810Z,3.80
2022-11-25T21:39:10.030Z,3.62
2022-11-25T21:44:22.965Z,3.99
2022-11-25T21:49:29.183Z,4.16
2022-11-25T21:54:33.574Z,3.82
2022-11-25T21:59:37.558Z,3.78
2022-11-25T22:04:42.955Z,3.70
2022-11-25T22:09:48.018Z,3.44
2022-11-25T22:14:52.422Z,3.37
2022-11-25T22:19:58.697Z,3.31
2022-11-25T22:25:04.950Z,3.39
2022-11-25T22:30:16.378Z,3.42
2022-11-25T22:35:22.451Z,3.25
2022-11-25T22:40:26.745Z,3.25
2022-11-25T22:45:33.424Z,2.84
2022-11-25T22:50:39.524Z,2.53
2022-11-25T22:55:46.214Z,2.77
2022-11-25T23:00:52.808Z,2.89
2022-11-25T23:05:58.949Z,2.66
2022-11-25T23:11:03.334Z,2.34
2022-11-25T23:16:07.883Z,2.08
2022-11-25T23:21:17.795Z,1.80
2022-11-25T23:26:21.974Z,1.84
2022-11-25T23:31:26.460Z,1.91
2022-11-25T23:36:41.180Z,2.15
2022-11-25T23:41:45.802Z,2.44
2022-11-25T23:46:50.681Z,2.43
2022-11-25T23:52:04.609Z,2.52
2022-11-25T23:57:15.688Z,2.06
